Laurel, Iowa
Current Conditions -  °F | °C
As of 3:15 AM on Monday 24 Nov 2014 (Local Time) from KTNU Reporting Station
Overcast Overcast  
Wind Chill: 20°   Ceiling: 1600
Heat Index: 32°   Visibility: 10mi
Dew Point: 28°   Wind: 21mph
Humidity: 87%   Direction: 310°NW
Pressure: 29.36"   Gusts: 29mph
Location:  41.88°N, 92.92°W
Report Text: KTNU 240915Z AUTO 31018G25KT 10SM OVC016 00/M02 A2936 RMK AO2
Loading
Personal Weather Stations






























Interactive Weather Map New forecast layout! Learn more

10-Day Weather Forecast

Advertisements
Track Severe Weather on mobile